Terminal Aerodrome Forecast
Issued by NWS

Home | Current Version | Previous Version | Text Only | Print | Product List | Glossary On
Versions: 1 2 3 4 5 6 7 8 9 10 11 12
000
FTUS45 KTFX 291700
TAFCTB
TAF
KCTB 291720Z 2918/3018 11008KT P6SM SKC
     FM291900 13010KT P6SM SCT100
     FM300300 VRB06KT P6SM SKC=

USA.gov is the U.S. government's official web portal to all federal, state and local government web resources and services.